Capri, Italy

4:47 AM CET on February 06, 2016 (GMT +0100)
Ciraccio | | Change Station
CLOSE
Current Station
Personal Weather Station
Location: Procida, NA
Elevation: 46 ft
Nearby Weather Stations

Elev 46 ft 40.76 °N, 14.01 °E | Updated 8 seconds ago

Clear
Clear
46.9 °F
Feels Like 47 °F
N
2.9
Wind Variable Wind from NNE
Gusts 7.6 mph

Today
High -- | Low -- °F
--% Chance of Precip.
Yesterday
High -- | Low -- °F
Precip. -- in
Pressure 30.45 in
Visibility -9999.0 miles
Clouds
Windchill 47 °F
Dew Point 30 °F
Humidity 52%
Rainfall 0.00 in
Snow Depth Not available.
7:08 AM 5:26 PM
Waning Crescent, 8% visible
METAR LIRN 060320Z 34005KT CAVOK 06/M02 Q1031 NOSIG
Pressure 30.45 in
Visibility -9999.0 miles
Clouds
Windchill 47 °F
Dew Point 30 °F
Humidity 52%
Rainfall 0.00 in
Snow Depth Not available.
7:08 AM 5:26 PM
Waning Crescent, 8% visible
METAR LIRN 060320Z 34005KT CAVOK 06/M02 Q1031 NOSIG

10-Day Weather Forecast

Almanac

Astronomy

Feb. 06, 2016 Rise Set
Actual Time
Civil Twilight
Nautical Twilight
Astronomical Twilight
Moon
Length of Visible Light
Length of Day
Tomorrow will be .
, % of the Moon is Illuminated

Today's Extremes

Country Highs Country Lows

Community

WunderPhotos

Upload Photos

1,890,922 photos uploaded!

WunderBlog® & News

Nearby

Air Quality

  Air Quality AQ Index Pollutant
Not available.

Snow Depth

Station Depth Elevation

Earthquake Activity

City Distance Mag. Time & Date
Minimum magnitude displayed is 2.5.

Coastal Water Temperatures

Place Temperature

Stations

Nearby Weather Stations

Station Location Temp. Windchill Dew Point Humidity Wind Precip. Elev Updated Type